Terminal Aerodrome Forecast
Issued by NWS Cleveland, OH

Home | Current Version | Previous Version | Graphics & Text | Print | Product List | Glossary On
Versions: 1 2 3 4 5 6 7 8 9 10 11 12 13 14 15 16 17 18 19 20 21 22 23 24 25 26 27 28 29 30
335
FTUS41 KCLE 291845 AAA
TAFCLE
TAF AMD
KCLE 291845Z 2919/3024 01007KT P6SM VCTS BKN045CB
      TEMPO 2919/2921 2SM TSRA OVC030CB
     FM300200 06005KT P6SM SCT060 BKN150
     FM301600 08008KT P6SM BKN040=

USA.gov is the U.S. government's official web portal to all federal, state and local government web resources and services.